createdAt,value
2022-10-04T00:02:14.701Z,12.70
2022-10-04T00:05:09.173Z,12.60
2022-10-04T00:07:44.535Z,12.60
2022-10-04T00:10:21.569Z,12.80
2022-10-04T00:12:55.730Z,12.70
2022-10-04T00:15:27.124Z,12.70
2022-10-04T00:18:03.911Z,12.90
2022-10-04T00:20:53.470Z,13.00
2022-10-04T00:23:25.042Z,13.10
2022-10-04T00:25:54.358Z,13.00
2022-10-04T00:28:38.509Z,13.00
2022-10-04T00:31:30.031Z,13.00
2022-10-04T00:34:03.531Z,12.90
2022-10-04T00:36:41.611Z,12.90
2022-10-04T00:39:08.360Z,12.80
2022-10-04T00:41:48.020Z,12.80
2022-10-04T00:44:22.654Z,12.70
2022-10-04T00:46:51.711Z,12.70
2022-10-04T00:49:22.913Z,12.60
2022-10-04T00:51:59.857Z,12.50
2022-10-04T00:54:38.602Z,12.40
2022-10-04T00:57:25.342Z,12.30
2022-10-04T00:59:55.646Z,12.30
2022-10-04T01:03:13.360Z,12.30
2022-10-04T01:05:46.050Z,12.30
2022-10-04T01:08:22.813Z,12.20
2022-10-04T01:10:57.831Z,12.20
2022-10-04T01:14:01.841Z,12.20
2022-10-04T01:16:36.221Z,12.20
2022-10-04T01:19:21.928Z,12.20
2022-10-04T01:22:35.289Z,12.00
2022-10-04T01:25:03.247Z,12.20
2022-10-04T01:27:37.535Z,12.20
2022-10-04T01:30:12.396Z,12.20
2022-10-04T01:32:40.095Z,12.20
2022-10-04T01:35:09.603Z,12.20
2022-10-04T01:37:40.246Z,12.20
2022-10-04T01:40:09.279Z,12.10
2022-10-04T01:42:54.971Z,12.10
2022-10-04T01:45:28.477Z,12.10
2022-10-04T01:48:05.238Z,12.00
2022-10-04T01:50:36.979Z,12.00
2022-10-04T01:53:25.662Z,11.90
2022-10-04T01:55:55.904Z,11.90
2022-10-04T01:58:33.997Z,11.90
2022-10-04T02:01:08.563Z,11.90
2022-10-04T02:03:41.835Z,11.90
2022-10-04T02:06:10.812Z,11.90
2022-10-04T02:08:49.443Z,11.90
2022-10-04T02:11:21.387Z,11.90
2022-10-04T02:13:52.468Z,11.90
2022-10-04T02:16:21.563Z,12.00
2022-10-04T02:18:50.838Z,11.90
2022-10-04T02:21:18.889Z,11.90
2022-10-04T02:23:47.193Z,11.90
2022-10-04T02:26:14.192Z,11.90
2022-10-04T02:28:41.202Z,11.80
2022-10-04T02:31:28.371Z,11.70
2022-10-04T02:33:58.254Z,11.70
2022-10-04T02:36:29.381Z,11.70
2022-10-04T02:39:30.933Z,11.60
2022-10-04T02:42:02.985Z,11.60
2022-10-04T02:44:44.567Z,11.60
2022-10-04T02:47:19.989Z,11.50
2022-10-04T02:50:00.162Z,11.50
2022-10-04T02:52:36.728Z,11.50
2022-10-04T02:55:30.158Z,11.50
2022-10-04T02:57:59.303Z,11.50
2022-10-04T03:00:29.478Z,11.40
2022-10-04T03:03:17.106Z,11.40
2022-10-04T03:06:05.061Z,11.30
2022-10-04T03:08:35.898Z,11.30
2022-10-04T03:11:04.855Z,11.30
2022-10-04T03:13:32.332Z,11.20
2022-10-04T03:15:59.264Z,11.30
2022-10-04T03:18:26.117Z,11.40
2022-10-04T03:20:53.745Z,11.40
2022-10-04T03:23:21.411Z,11.30
2022-10-04T03:25:59.689Z,11.20
2022-10-04T03:28:28.328Z,11.20
2022-10-04T03:30:57.087Z,11.20
2022-10-04T03:33:26.551Z,11.30
2022-10-04T03:35:56.419Z,11.30
2022-10-04T03:38:25.370Z,11.50
2022-10-04T03:41:01.492Z,11.30
2022-10-04T03:43:35.307Z,11.40
2022-10-04T03:46:03.414Z,11.50
2022-10-04T03:48:44.749Z,11.40
2022-10-04T03:51:18.653Z,11.40
2022-10-04T03:54:01.637Z,11.40
2022-10-04T03:56:33.469Z,11.30
2022-10-04T03:59:04.115Z,11.30
2022-10-04T04:01:49.388Z,11.30
2022-10-04T04:04:32.334Z,11.20
2022-10-04T04:07:14.335Z,11.10
2022-10-04T04:09:52.898Z,11.10
2022-10-04T04:12:28.524Z,11.20
2022-10-04T04:14:55.557Z,11.10
2022-10-04T04:17:45.637Z,11.20
2022-10-04T04:20:34.614Z,11.10
2022-10-04T04:23:24.217Z,11.20
2022-10-04T04:26:11.825Z,11.10
2022-10-04T04:29:22.390Z,11.10
2022-10-04T04:32:12.196Z,11.10
2022-10-04T04:35:00.743Z,11.10
2022-10-04T04:37:27.762Z,11.00
2022-10-04T04:39:54.822Z,10.90
2022-10-04T04:42:39.470Z,10.90
2022-10-04T04:45:36.454Z,10.80
2022-10-04T04:48:07.243Z,10.80
2022-10-04T04:50:37.375Z,10.70
2022-10-04T04:53:18.028Z,10.60
2022-10-04T04:56:03.998Z,10.60
2022-10-04T04:58:35.417Z,10.60
2022-10-04T05:01:09.156Z,10.60
2022-10-04T05:03:36.324Z,10.60
2022-10-04T05:06:04.931Z,10.50
2022-10-04T05:08:37.317Z,10.50
2022-10-04T05:11:08.385Z,10.50
2022-10-04T05:13:41.147Z,10.50
2022-10-04T05:16:16.561Z,10.50
2022-10-04T05:18:43.616Z,10.60
2022-10-04T05:21:28.429Z,10.60
2022-10-04T05:23:58.187Z,10.60
2022-10-04T05:26:28.995Z,10.60
2022-10-04T05:29:25.002Z,10.60
2022-10-04T05:31:56.005Z,10.50
2022-10-04T05:34:28.733Z,10.70
2022-10-04T05:37:34.216Z,10.70
2022-10-04T05:40:13.158Z,10.80
2022-10-04T05:42:47.774Z,10.70
2022-10-04T05:45:20.660Z,10.60
2022-10-04T05:47:56.008Z,10.50
2022-10-04T05:50:28.362Z,10.50
2022-10-04T05:53:24.264Z,10.50
2022-10-04T05:56:16.781Z,10.20
2022-10-04T05:59:20.755Z,10.40
2022-10-04T06:02:08.805Z,10.50
2022-10-04T06:04:49.699Z,10.50
2022-10-04T06:07:35.258Z,10.50
2022-10-04T06:10:26.104Z,10.50
2022-10-04T06:13:16.654Z,10.50
2022-10-04T06:16:12.555Z,10.40
2022-10-04T06:19:03.823Z,10.50
2022-10-04T06:21:53.838Z,10.50
2022-10-04T06:24:35.161Z,10.50
2022-10-04T06:27:32.716Z,10.50
2022-10-04T06:30:06.973Z,10.60
2022-10-04T06:32:52.362Z,10.60
2022-10-04T06:35:49.046Z,10.80
2022-10-04T06:38:46.956Z,10.60
2022-10-04T06:41:20.906Z,10.60
2022-10-04T06:44:02.962Z,10.60
2022-10-04T06:46:42.295Z,10.60
2022-10-04T06:49:19.955Z,10.60
2022-10-04T06:52:21.118Z,10.50
2022-10-04T06:55:31.909Z,10.60
2022-10-04T06:58:36.444Z,10.60
2022-10-04T07:01:08.837Z,10.70
2022-10-04T07:03:51.605Z,10.90
2022-10-04T07:06:25.809Z,11.00
2022-10-04T07:08:59.544Z,11.10
2022-10-04T07:11:46.208Z,11.20
2022-10-04T07:14:20.379Z,11.30
2022-10-04T07:16:56.406Z,11.50
2022-10-04T07:19:26.191Z,11.50
2022-10-04T07:22:08.151Z,11.60
2022-10-04T07:25:07.253Z,11.70
2022-10-04T07:28:15.773Z,11.80
2022-10-04T07:30:54.381Z,11.90
2022-10-04T07:33:24.900Z,12.00
2022-10-04T07:36:00.674Z,12.20
2022-10-04T07:38:31.425Z,12.20
2022-10-04T07:41:03.651Z,12.30
2022-10-04T07:43:34.974Z,12.50
2022-10-04T07:46:27.638Z,12.50
2022-10-04T07:48:55.450Z,12.60
2022-10-04T07:51:34.729Z,12.70
2022-10-04T07:54:23.595Z,12.70
2022-10-04T07:56:59.677Z,12.80
2022-10-04T07:59:44.406Z,13.00
2022-10-04T08:02:38.543Z,13.20
2022-10-04T08:05:15.765Z,13.30
2022-10-04T08:08:14.046Z,13.50
2022-10-04T08:10:57.402Z,13.70
2022-10-04T08:13:41.949Z,13.90
2022-10-04T08:16:43.632Z,14.10
2022-10-04T08:19:14.057Z,14.20
2022-10-04T08:22:05.189Z,14.40
2022-10-04T08:24:53.655Z,14.60
2022-10-04T08:28:14.547Z,14.80
2022-10-04T08:30:56.030Z,14.80
2022-10-04T08:33:55.494Z,14.90
2022-10-04T08:36:54.845Z,15.00
2022-10-04T08:39:45.984Z,14.90
2022-10-04T08:42:33.086Z,15.00
2022-10-04T08:45:58.395Z,15.10
2022-10-04T08:48:59.510Z,15.10
2022-10-04T08:51:51.131Z,15.20
2022-10-04T08:54:35.387Z,15.40
2022-10-04T08:57:15.087Z,15.60
2022-10-04T09:00:13.448Z,15.80
2022-10-04T09:02:55.148Z,16.00
2022-10-04T09:05:34.100Z,16.10
2022-10-04T09:08:46.575Z,16.10
2022-10-04T09:11:19.361Z,16.10
2022-10-04T09:14:14.939Z,16.00
2022-10-04T09:16:48.445Z,15.90
2022-10-04T09:19:34.028Z,15.90
2022-10-04T09:22:17.168Z,16.10
2022-10-04T09:25:02.480Z,16.30
2022-10-04T09:28:06.692Z,16.20
2022-10-04T09:30:52.149Z,16.30
2022-10-04T09:33:38.871Z,16.50
2022-10-04T09:36:25.876Z,16.80
2022-10-04T09:39:30.689Z,17.00
2022-10-04T09:42:39.360Z,17.20
2022-10-04T09:45:27.440Z,17.30
2022-10-04T09:48:15.160Z,17.40
2022-10-04T09:50:59.325Z,17.40
2022-10-04T09:53:45.018Z,17.50
2022-10-04T09:56:45.723Z,17.60
2022-10-04T09:59:22.672Z,17.90
2022-10-04T10:02:08.176Z,17.90
2022-10-04T10:05:02.147Z,18.00
2022-10-04T10:07:47.305Z,18.00
2022-10-04T10:10:55.736Z,18.00
2022-10-04T10:13:58.576Z,18.10
2022-10-04T10:17:00.930Z,18.30
2022-10-04T10:20:08.514Z,18.30
2022-10-04T10:22:53.455Z,18.00
2022-10-04T10:25:25.871Z,17.90
2022-10-04T10:28:19.153Z,18.00
2022-10-04T10:30:51.688Z,18.20
2022-10-04T10:34:02.130Z,18.50
2022-10-04T10:36:51.410Z,18.70
2022-10-04T10:39:39.830Z,18.80
2022-10-04T10:42:44.175Z,18.90
2022-10-04T10:45:29.546Z,18.90
2022-10-04T10:48:01.710Z,18.60
2022-10-04T10:51:06.080Z,18.40
2022-10-04T10:54:21.135Z,18.50
2022-10-04T10:56:52.550Z,18.80
2022-10-04T10:59:56.568Z,19.20
2022-10-04T11:03:13.321Z,19.30
2022-10-04T11:06:04.374Z,19.40
2022-10-04T11:09:22.147Z,19.20
2022-10-04T11:12:39.227Z,19.00
2022-10-04T11:15:38.419Z,18.70
2022-10-04T11:18:42.050Z,18.60
2022-10-04T11:21:28.031Z,18.70
2022-10-04T11:24:26.149Z,18.80
2022-10-04T11:27:11.306Z,19.00
2022-10-04T11:29:58.594Z,19.10
2022-10-04T11:32:40.233Z,19.40
2022-10-04T11:35:36.812Z,19.60
2022-10-04T11:38:35.598Z,19.60
2022-10-04T11:41:30.120Z,19.50
2022-10-04T11:44:15.821Z,19.30
2022-10-04T11:46:48.364Z,19.30
2022-10-04T11:49:43.283Z,19.40
2022-10-04T11:53:03.266Z,19.30
2022-10-04T11:56:19.364Z,19.40
2022-10-04T11:58:59.796Z,19.50
2022-10-04T12:01:47.587Z,19.60
2022-10-04T12:04:18.061Z,19.60
2022-10-04T12:07:25.285Z,19.60
2022-10-04T12:10:17.964Z,19.60
2022-10-04T12:13:05.096Z,19.60
2022-10-04T12:15:58.109Z,19.70
2022-10-04T12:18:55.486Z,19.60
2022-10-04T12:21:22.334Z,19.60
2022-10-04T12:24:09.133Z,19.60
2022-10-04T12:26:35.763Z,19.60
2022-10-04T12:29:24.369Z,19.60
2022-10-04T12:32:18.084Z,19.70
2022-10-04T12:34:56.768Z,19.70
2022-10-04T12:37:46.567Z,19.80
2022-10-04T12:40:33.095Z,19.70
2022-10-04T12:42:59.843Z,19.80
2022-10-04T12:46:10.839Z,19.70
2022-10-04T12:49:16.317Z,19.70
2022-10-04T12:52:10.925Z,19.80
2022-10-04T12:54:56.062Z,19.80
2022-10-04T12:57:49.558Z,19.80
2022-10-04T13:00:22.747Z,19.90
2022-10-04T13:03:04.517Z,19.80
2022-10-04T13:05:48.335Z,19.70
2022-10-04T13:08:53.205Z,19.80
2022-10-04T13:11:35.886Z,19.80
2022-10-04T13:14:28.233Z,19.80
2022-10-04T13:19:58.075Z,19.80
2022-10-04T13:22:56.968Z,19.90
2022-10-04T13:25:38.916Z,20.00
2022-10-04T13:28:20.585Z,20.10
2022-10-04T13:30:55.545Z,20.20
2022-10-04T13:33:30.121Z,20.30
2022-10-04T13:36:17.191Z,21.10
2022-10-04T13:39:07.360Z,22.00
2022-10-04T13:41:52.304Z,22.80
2022-10-04T13:44:37.215Z,23.50
2022-10-04T13:47:22.861Z,24.10
2022-10-04T13:50:08.300Z,24.40
2022-10-04T13:53:12.357Z,24.80
2022-10-04T13:56:07.586Z,24.60
2022-10-04T13:58:52.670Z,24.90
2022-10-04T14:01:53.183Z,24.90
2022-10-04T14:04:38.592Z,24.50
2022-10-04T14:07:24.056Z,24.30
2022-10-04T14:10:00.817Z,24.40
2022-10-04T14:12:48.900Z,24.50
2022-10-04T14:15:42.298Z,24.50
2022-10-04T14:18:14.882Z,24.80
2022-10-04T14:21:19.809Z,24.70
2022-10-04T14:24:02.588Z,24.50
2022-10-04T14:26:43.528Z,24.60
2022-10-04T14:29:48.090Z,24.40
2022-10-04T14:32:47.280Z,24.10
2022-10-04T14:35:35.095Z,24.40
2022-10-04T14:38:33.753Z,25.00
2022-10-04T14:41:22.131Z,24.70
2022-10-04T14:44:06.943Z,24.70
2022-10-04T14:46:55.819Z,24.60
2022-10-04T14:49:47.910Z,24.40
2022-10-04T14:52:18.228Z,23.90
2022-10-04T14:54:56.352Z,23.50
2022-10-04T14:57:56.844Z,23.20
2022-10-04T15:00:29.795Z,22.90
2022-10-04T15:03:29.368Z,22.60
2022-10-04T15:06:10.829Z,22.40
2022-10-04T15:09:15.322Z,22.30
2022-10-04T15:15:14.352Z,21.70
2022-10-04T15:17:56.285Z,21.60
2022-10-04T15:20:32.805Z,21.70
2022-10-04T15:23:16.779Z,22.30
2022-10-04T15:25:47.918Z,22.50
2022-10-04T15:28:33.697Z,22.50
2022-10-04T15:31:12.259Z,22.30
2022-10-04T15:33:59.899Z,21.90
2022-10-04T15:37:01.639Z,21.50
2022-10-04T15:39:57.307Z,21.10
2022-10-04T15:42:29.486Z,20.90
2022-10-04T15:44:57.268Z,20.60
2022-10-04T15:47:54.505Z,20.50
2022-10-04T15:50:50.202Z,20.40
2022-10-04T15:53:26.804Z,20.30
2022-10-04T15:56:27.155Z,20.20
2022-10-04T15:59:18.995Z,20.10
2022-10-04T16:02:23.356Z,19.90
2022-10-04T16:05:24.559Z,19.70
2022-10-04T16:08:09.615Z,19.60
2022-10-04T16:11:00.330Z,19.40
2022-10-04T16:13:53.648Z,19.30
2022-10-04T16:16:39.720Z,19.20
2022-10-04T16:19:33.606Z,19.10
2022-10-04T16:22:14.769Z,19.00
2022-10-04T16:24:58.461Z,18.80
2022-10-04T16:27:28.113Z,18.90
2022-10-04T16:30:27.384Z,18.80
2022-10-04T16:33:26.861Z,18.70
2022-10-04T16:36:09.349Z,18.60
2022-10-04T16:39:07.252Z,18.50
2022-10-04T16:41:36.863Z,18.50
2022-10-04T16:44:04.799Z,18.20
2022-10-04T16:46:46.071Z,18.10
2022-10-04T16:49:31.165Z,18.10
2022-10-04T16:52:16.551Z,17.90
2022-10-04T16:55:03.966Z,17.80
2022-10-04T16:57:30.997Z,17.70
2022-10-04T17:00:37.984Z,17.70
2022-10-04T17:03:10.044Z,17.70
2022-10-04T17:05:48.594Z,17.60
2022-10-04T17:08:15.347Z,17.60
2022-10-04T17:10:59.664Z,17.50
2022-10-04T17:13:55.566Z,17.40
2022-10-04T17:16:57.262Z,17.30
2022-10-04T17:19:42.542Z,17.30
2022-10-04T17:22:38.503Z,17.30
2022-10-04T17:25:24.496Z,17.20
2022-10-04T17:28:09.990Z,17.20
2022-10-04T17:31:15.579Z,17.30
2022-10-04T17:33:56.081Z,17.40
2022-10-04T17:36:38.941Z,17.40
2022-10-04T17:39:26.711Z,17.50
2022-10-04T17:42:16.668Z,17.50
2022-10-04T17:45:15.466Z,17.50
2022-10-04T17:48:15.557Z,17.50
2022-10-04T17:51:21.032Z,17.60
2022-10-04T17:54:23.966Z,17.60
2022-10-04T17:56:59.193Z,17.60
2022-10-04T17:59:31.218Z,17.60
2022-10-04T18:02:20.278Z,17.60
2022-10-04T18:04:59.017Z,17.60
2022-10-04T18:07:33.068Z,17.70
2022-10-04T18:10:14.512Z,17.60
2022-10-04T18:13:00.791Z,17.60
2022-10-04T18:15:33.965Z,17.60
2022-10-04T18:18:24.694Z,17.80
2022-10-04T18:20:54.592Z,17.60
2022-10-04T18:23:29.120Z,17.70
2022-10-04T18:26:04.407Z,17.60
2022-10-04T18:28:34.516Z,17.60
2022-10-04T18:31:18.242Z,17.50
2022-10-04T18:33:48.348Z,17.50
2022-10-04T18:36:27.393Z,17.50
2022-10-04T18:39:13.778Z,17.40
2022-10-04T18:41:57.958Z,17.40
2022-10-04T18:44:43.976Z,17.40
2022-10-04T18:47:33.967Z,17.50
2022-10-04T18:50:13.563Z,17.30
2022-10-04T18:52:55.675Z,17.40
2022-10-04T18:55:29.818Z,17.20
2022-10-04T18:58:43.343Z,17.30
2022-10-04T19:01:50.419Z,17.30
2022-10-04T19:04:48.651Z,17.30
2022-10-04T19:07:17.419Z,17.30
2022-10-04T19:09:58.977Z,17.20
2022-10-04T19:12:42.486Z,17.20
2022-10-04T19:15:30.513Z,17.30
2022-10-04T19:18:40.054Z,17.30
2022-10-04T19:21:35.032Z,17.30
2022-10-04T19:24:12.673Z,17.20
2022-10-04T19:26:47.583Z,17.20
2022-10-04T19:29:51.694Z,17.10
2022-10-04T19:32:38.516Z,17.10
2022-10-04T19:35:11.342Z,17.10
2022-10-04T19:38:05.174Z,17.10
2022-10-04T19:40:53.967Z,17.00
2022-10-04T19:43:20.903Z,17.00
2022-10-04T19:46:28.066Z,17.10
2022-10-04T19:48:54.886Z,17.10
2022-10-04T19:51:34.478Z,17.00
2022-10-04T19:54:15.945Z,17.10
2022-10-04T19:56:47.387Z,17.10
2022-10-04T19:59:40.657Z,17.10
2022-10-04T20:02:11.961Z,17.10
2022-10-04T20:04:39.202Z,17.00
2022-10-04T20:07:20.464Z,17.00
2022-10-04T20:09:56.832Z,17.00
2022-10-04T20:12:41.374Z,17.00
2022-10-04T20:15:17.153Z,17.00
2022-10-04T20:17:45.956Z,17.00
2022-10-04T20:20:38.587Z,17.00
2022-10-04T20:23:10.053Z,17.00
2022-10-04T20:25:49.784Z,17.10
2022-10-04T20:28:28.701Z,17.00
2022-10-04T20:31:00.220Z,17.10
2022-10-04T20:33:33.083Z,17.10
2022-10-04T20:36:02.722Z,17.10
2022-10-04T20:38:59.281Z,17.00
2022-10-04T20:41:28.756Z,17.10
2022-10-04T20:44:03.889Z,17.00
2022-10-04T20:46:39.959Z,17.00
2022-10-04T20:49:18.594Z,17.00
2022-10-04T20:51:49.730Z,17.00
2022-10-04T20:54:18.194Z,16.90
2022-10-04T20:56:50.305Z,17.00
2022-10-04T20:59:18.556Z,17.00
2022-10-04T21:02:04.912Z,17.00
2022-10-04T21:04:49.927Z,17.00
2022-10-04T21:07:22.190Z,17.00
2022-10-04T21:09:50.108Z,17.00
2022-10-04T21:12:39.480Z,17.00
2022-10-04T21:15:20.690Z,17.00
2022-10-04T21:18:09.551Z,17.00
2022-10-04T21:20:52.161Z,17.00
2022-10-04T21:23:33.798Z,17.00
2022-10-04T21:26:21.973Z,17.00
2022-10-04T21:28:53.594Z,17.00
2022-10-04T21:31:20.376Z,17.00
2022-10-04T21:33:47.542Z,17.00
2022-10-04T21:36:14.468Z,17.00
2022-10-04T21:38:41.201Z,17.00
2022-10-04T21:41:08.145Z,17.00
2022-10-04T21:43:35.187Z,17.00
2022-10-04T21:46:02.103Z,17.00
2022-10-04T21:48:28.890Z,17.00
2022-10-04T21:50:56.385Z,17.00
2022-10-04T21:53:23.243Z,16.90
2022-10-04T21:55:50.158Z,16.90
2022-10-04T21:58:16.978Z,16.80
2022-10-04T22:00:43.956Z,16.90
2022-10-04T22:03:12.118Z,16.90
2022-10-04T22:05:39.177Z,17.00
2022-10-04T22:08:06.220Z,16.90
2022-10-04T22:10:34.076Z,16.90
2022-10-04T22:13:00.894Z,17.00
2022-10-04T22:15:28.688Z,16.90
2022-10-04T22:17:57.233Z,16.90
2022-10-04T22:20:25.620Z,16.90
2022-10-04T22:22:53.957Z,16.90
2022-10-04T22:25:22.537Z,16.80
2022-10-04T22:27:51.813Z,16.80
2022-10-04T22:30:23.567Z,16.80
2022-10-04T22:32:51.095Z,16.90
2022-10-04T22:35:20.219Z,16.80
2022-10-04T22:37:48.678Z,16.80
2022-10-04T22:40:19.972Z,16.90
2022-10-04T22:42:51.162Z,16.80
2022-10-04T22:45:27.803Z,16.80
2022-10-04T22:47:57.501Z,16.80
2022-10-04T22:50:27.578Z,16.80
2022-10-04T22:52:54.530Z,16.80
2022-10-04T22:55:21.335Z,16.80
2022-10-04T22:57:48.540Z,16.70
2022-10-04T23:00:15.731Z,16.70
2022-10-04T23:02:42.773Z,16.70
2022-10-04T23:05:15.064Z,16.70
2022-10-04T23:07:43.212Z,16.70
2022-10-04T23:10:12.154Z,16.70
2022-10-04T23:12:40.647Z,16.70
2022-10-04T23:15:08.055Z,16.80
2022-10-04T23:17:38.522Z,16.70
2022-10-04T23:20:20.256Z,16.70
2022-10-04T23:22:49.615Z,16.70
2022-10-04T23:25:23.228Z,16.70
2022-10-04T23:27:49.947Z,16.70
2022-10-04T23:30:19.903Z,16.60
2022-10-04T23:32:53.274Z,16.60
2022-10-04T23:35:23.587Z,16.70
2022-10-04T23:37:52.381Z,16.50
2022-10-04T23:40:22.881Z,16.60
2022-10-04T23:42:52.940Z,16.60
2022-10-04T23:45:22.380Z,16.60
2022-10-04T23:47:55.313Z,16.60
2022-10-04T23:50:32.821Z,16.60
2022-10-04T23:53:04.441Z,16.60
2022-10-04T23:55:38.736Z,16.60
2022-10-04T23:58:21.071Z,16.60
